sensor_id;sensor_type;location;lat;lon;timestamp;pressure;altitude;pressure_sealevel;temperature;humidity
54459;BME280;40368;49.350;8.152;2022-12-18T00:01:14;1014.9;;;5.75;38.25
54459;BME280;40368;49.350;8.152;2022-12-18T00:01:48;1014.9;;;5.82;38.16
54459;BME280;40368;49.350;8.152;2022-12-18T00:03:02;1014.8;;;5.8;38.46
54459;BME280;40368;49.350;8.152;2022-12-18T00:03:40;1014.8;;;5.77;38.55
54459;BME280;40368;49.350;8.152;2022-12-18T00:04:54;1014.7;;;5.84;38.24
54459;BME280;40368;49.350;8.152;2022-12-18T00:06:08;1014.6;;;5.84;38.07
54459;BME280;40368;49.350;8.152;2022-12-18T00:06:45;1014.7;;;5.84;37.85
54459;BME280;40368;49.350;8.152;2022-12-18T00:07:59;1014.6;;;5.82;38.13
54459;BME280;40368;49.350;8.152;2022-12-18T00:09:13;1014.6;;;5.88;38.27
54459;BME280;40368;49.350;8.152;2022-12-18T00:09:50;1014.5;;;5.83;38.17
54459;BME280;40368;49.350;8.152;2022-12-18T00:11:04;1014.5;;;5.93;37.45
54459;BME280;40368;49.350;8.152;2022-12-18T00:11:42;1014.6;;;5.93;38.03
54459;BME280;40368;49.350;8.152;2022-12-18T00:12:56;1014.5;;;5.89;37.66
54459;BME280;40368;49.350;8.152;2022-12-18T00:14:11;1014.6;;;5.88;37.86
54459;BME280;40368;49.350;8.152;2022-12-18T00:14:47;1014.6;;;5.88;38.03
54459;BME280;40368;49.350;8.152;2022-12-18T00:16:01;1014.6;;;5.87;37.81
54459;BME280;40368;49.350;8.152;2022-12-18T00:17:15;1014.6;;;5.83;38.05
54459;BME280;40368;49.350;8.152;2022-12-18T00:17:52;1014.5;;;5.84;37.73
54459;BME280;40368;49.350;8.152;2022-12-18T00:19:06;1014.6;;;5.8;37.86
54459;BME280;40368;49.350;8.152;2022-12-18T00:19:43;1014.6;;;5.82;37.86
54459;BME280;40368;49.350;8.152;2022-12-18T00:20:58;1014.6;;;5.77;38.2
54459;BME280;40368;49.350;8.152;2022-12-18T00:22:11;1014.6;;;5.72;38.17
54459;BME280;40368;49.350;8.152;2022-12-18T00:22:48;1014.6;;;5.75;38.13
54459;BME280;40368;49.350;8.152;2022-12-18T00:24:03;1014.7;;;5.66;38.44
54459;BME280;40368;49.350;8.152;2022-12-18T00:24:40;1014.7;;;5.71;38.67
54459;BME280;40368;49.350;8.152;2022-12-18T00:25:54;1014.7;;;5.62;38.65
54459;BME280;40368;49.350;8.152;2022-12-18T00:27:08;1014.7;;;5.58;38.68
54459;BME280;40368;49.350;8.152;2022-12-18T00:27:45;1014.7;;;5.58;38.69
54459;BME280;40368;49.350;8.152;2022-12-18T00:29:00;1014.8;;;5.58;38.67
54459;BME280;40368;49.350;8.152;2022-12-18T00:30:13;1014.7;;;5.58;38.59
54459;BME280;40368;49.350;8.152;2022-12-18T00:30:50;1014.8;;;5.6;38.72
54459;BME280;40368;49.350;8.152;2022-12-18T00:32:04;1014.8;;;5.57;38.78
54459;BME280;40368;49.350;8.152;2022-12-18T00:32:42;1014.8;;;5.57;38.82
54459;BME280;40368;49.350;8.152;2022-12-18T00:33:56;1014.7;;;5.59;38.68
54459;BME280;40368;49.350;8.152;2022-12-18T00:35:10;1014.8;;;5.64;38.2
54459;BME280;40368;49.350;8.152;2022-12-18T00:35:47;1014.8;;;5.62;38.78
54459;BME280;40368;49.350;8.152;2022-12-18T00:37:01;1014.7;;;5.67;38.76
54459;BME280;40368;49.350;8.152;2022-12-18T00:37:38;1014.8;;;5.68;38.44
54459;BME280;40368;49.350;8.152;2022-12-18T00:38:44;1014.8;;;5.68;38.51
54459;BME280;40368;49.350;8.152;2022-12-18T00:39:58;1014.8;;;5.68;38.73
54459;BME280;40368;49.350;8.152;2022-12-18T00:41:13;1014.8;;;5.73;38.54
54459;BME280;40368;49.350;8.152;2022-12-18T00:41:49;1014.8;;;5.69;38.72
54459;BME280;40368;49.350;8.152;2022-12-18T00:43:03;1014.8;;;5.76;38.35
54459;BME280;40368;49.350;8.152;2022-12-18T00:43:40;1014.8;;;5.77;38.4
54459;BME280;40368;49.350;8.152;2022-12-18T00:44:55;1014.8;;;5.76;38.63
54459;BME280;40368;49.350;8.152;2022-12-18T00:46:09;1014.6;;;5.71;38.36
54459;BME280;40368;49.350;8.152;2022-12-18T00:46:46;1014.8;;;5.8;38.87
54459;BME280;40368;49.350;8.152;2022-12-18T00:48:00;1014.8;;;5.83;38.91
54459;BME280;40368;49.350;8.152;2022-12-18T00:49:15;1014.7;;;5.93;38.73
54459;BME280;40368;49.350;8.152;2022-12-18T00:49:51;1014.7;;;5.87;38.84
54459;BME280;40368;49.350;8.152;2022-12-18T00:51:05;1014.7;;;5.91;38.28
54459;BME280;40368;49.350;8.152;2022-12-18T00:51:42;1014.7;;;5.92;38.79
54459;BME280;40368;49.350;8.152;2022-12-18T00:52:56;1014.7;;;5.86;38.64
54459;BME280;40368;49.350;8.152;2022-12-18T00:54:11;1014.7;;;5.88;38.79
54459;BME280;40368;49.350;8.152;2022-12-18T00:54:48;1014.7;;;5.87;38.43
54459;BME280;40368;49.350;8.152;2022-12-18T00:56:02;1014.7;;;5.92;38.66
54459;BME280;40368;49.350;8.152;2022-12-18T00:57:16;1014.7;;;5.97;38.66
54459;BME280;40368;49.350;8.152;2022-12-18T00:57:53;1014.8;;;5.95;38.66
54459;BME280;40368;49.350;8.152;2022-12-18T00:59:07;1014.7;;;5.92;38.62
54459;BME280;40368;49.350;8.152;2022-12-18T00:59:44;1014.7;;;5.94;38.49
54459;BME280;40368;49.350;8.152;2022-12-18T01:00:58;1014.7;;;5.94;38.69
54459;BME280;40368;49.350;8.152;2022-12-18T01:02:12;1014.7;;;5.93;38.83
54459;BME280;40368;49.350;8.152;2022-12-18T01:02:49;1014.7;;;5.91;38.73
54459;BME280;40368;49.350;8.152;2022-12-18T01:04:03;1014.8;;;6;38.76
54459;BME280;40368;49.350;8.152;2022-12-18T01:04:41;1014.6;;;5.76;38.73
54459;BME280;40368;49.350;8.152;2022-12-18T01:05:55;1014.8;;;6.08;39
54459;BME280;40368;49.350;8.152;2022-12-18T01:07:46;1014.9;;;6.11;38.3
54459;BME280;40368;49.350;8.152;2022-12-18T01:09:00;1014.8;;;6.1;38.68
54459;BME280;40368;49.350;8.152;2022-12-18T01:10:14;1014.8;;;6.12;38.65
54459;BME280;40368;49.350;8.152;2022-12-18T01:10:51;1014.8;;;6.12;38.62
54459;BME280;40368;49.350;8.152;2022-12-18T01:12:05;1014.8;;;6.15;38.58
54459;BME280;40368;49.350;8.152;2022-12-18T01:12:42;1014.8;;;6.13;38.66
54459;BME280;40368;49.350;8.152;2022-12-18T01:13:56;1014.8;;;6.15;38.41
54459;BME280;40368;49.350;8.152;2022-12-18T01:15:11;1014.7;;;6.18;38.16
54459;BME280;40368;49.350;8.152;2022-12-18T01:15:48;1014.7;;;6.15;38.44
54459;BME280;40368;49.350;8.152;2022-12-18T01:17:02;1014.8;;;6.19;38.27
54459;BME280;40368;49.350;8.152;2022-12-18T01:18:16;1014.7;;;6.17;38.48
54459;BME280;40368;49.350;8.152;2022-12-18T01:20:08;1014.6;;;6.12;37.99
54459;BME280;40368;49.350;8.152;2022-12-18T01:20:44;1014.6;;;6.18;38.24
54459;BME280;40368;49.350;8.152;2022-12-18T01:21:58;1014.6;;;6.07;38.39
54459;BME280;40368;49.350;8.152;2022-12-18T01:23:12;1014.5;;;6.06;38.44
54459;BME280;40368;49.350;8.152;2022-12-18T01:23:51;1014.5;;;6.05;38.43
54459;BME280;40368;49.350;8.152;2022-12-18T01:25:04;1014.5;;;6.03;38.2
54459;BME280;40368;49.350;8.152;2022-12-18T01:25:41;1014.5;;;6.05;38.45
54459;BME280;40368;49.350;8.152;2022-12-18T01:26:55;1014.5;;;6;38.2
54459;BME280;40368;49.350;8.152;2022-12-18T01:28:09;1014.5;;;5.98;38.39
54459;BME280;40368;49.350;8.152;2022-12-18T01:28:46;1014.8;;;6.11;38.6
54459;BME280;40368;49.350;8.152;2022-12-18T01:30:00;1014.5;;;5.84;38.5
54459;BME280;40368;49.350;8.152;2022-12-18T01:31:54;1014.6;;;5.76;38.68
54459;BME280;40368;49.350;8.152;2022-12-18T01:33:05;1014.6;;;5.73;38.92
54459;BME280;40368;49.350;8.152;2022-12-18T01:33:43;1014.6;;;5.73;38.96
54459;BME280;40368;49.350;8.152;2022-12-18T01:34:57;1014.6;;;5.75;39.07
54459;BME280;40368;49.350;8.152;2022-12-18T01:36:15;1014.6;;;5.75;38.55
54459;BME280;40368;49.350;8.152;2022-12-18T01:36:48;1014.6;;;5.75;38.94
54459;BME280;40368;49.350;8.152;2022-12-18T01:38:02;1014.6;;;5.75;38.87
54459;BME280;40368;49.350;8.152;2022-12-18T01:39:16;1014.8;;;5.76;38.74
54459;BME280;40368;49.350;8.152;2022-12-18T01:39:53;1014.7;;;5.74;38.87
54459;BME280;40368;49.350;8.152;2022-12-18T01:41:07;1014.9;;;5.81;38.87
54459;BME280;40368;49.350;8.152;2022-12-18T01:41:45;1014.8;;;5.78;38.77
54459;BME280;40368;49.350;8.152;2022-12-18T01:42:58;1014.9;;;5.82;38.57
54459;BME280;40368;49.350;8.152;2022-12-18T01:44:46;1014.8;;;5.86;38.65
54459;BME280;40368;49.350;8.152;2022-12-18T01:44:54;1014.8;;;5.84;38.6
54459;BME280;40368;49.350;8.152;2022-12-18T01:46:04;1014.8;;;5.87;38.86
54459;BME280;40368;49.350;8.152;2022-12-18T01:46:41;1014.8;;;5.85;38.58
54459;BME280;40368;49.350;8.152;2022-12-18T01:47:55;1014.8;;;5.9;38.57
54459;BME280;40368;49.350;8.152;2022-12-18T01:48:32;1014.8;;;5.88;38.45
54459;BME280;40368;49.350;8.152;2022-12-18T01:49:38;1014.8;;;5.9;38.47
54459;BME280;40368;49.350;8.152;2022-12-18T01:50:52;1014.8;;;5.86;38.59
54459;BME280;40368;49.350;8.152;2022-12-18T01:52:06;1014.7;;;5.86;38.57
54459;BME280;40368;49.350;8.152;2022-12-18T01:52:44;1014.8;;;5.84;38.68
54459;BME280;40368;49.350;8.152;2022-12-18T01:53:57;1014.8;;;5.89;38.67
54459;BME280;40368;49.350;8.152;2022-12-18T01:55:12;1014.7;;;5.93;38.4
54459;BME280;40368;49.350;8.152;2022-12-18T01:55:49;1014.7;;;5.91;38.31
54459;BME280;40368;49.350;8.152;2022-12-18T01:57:03;1014.7;;;5.99;38.44
54459;BME280;40368;49.350;8.152;2022-12-18T01:57:40;1014.7;;;5.95;38.38
54459;BME280;40368;49.350;8.152;2022-12-18T01:58:55;1014.7;;;6.02;38.5
54459;BME280;40368;49.350;8.152;2022-12-18T02:00:09;1014.7;;;5.99;38.35
54459;BME280;40368;49.350;8.152;2022-12-18T02:00:45;1014.6;;;6.01;38.1
54459;BME280;40368;49.350;8.152;2022-12-18T02:01:59;1014.7;;;6;38.47
54459;BME280;40368;49.350;8.152;2022-12-18T02:05:05;1014.7;;;6;37.88
54459;BME280;40368;49.350;8.152;2022-12-18T02:05:44;1014.7;;;6.03;38.29
54459;BME280;40368;49.350;8.152;2022-12-18T02:10:41;1014.8;;;6.02;38.04
54459;BME280;40368;49.350;8.152;2022-12-18T02:15:36;1014.9;;;6.03;38.14
54459;BME280;40368;49.350;8.152;2022-12-18T02:19:21;1014.8;;;6.04;38.07
54459;BME280;40368;49.350;8.152;2022-12-18T02:19:58;1014.7;;;5.98;38.31
54459;BME280;40368;49.350;8.152;2022-12-18T02:21:09;1014.8;;;6.08;37.8
54459;BME280;40368;49.350;8.152;2022-12-18T02:21:46;1014.8;;;6.07;38.25
54459;BME280;40368;49.350;8.152;2022-12-18T02:23:05;1014.8;;;6.06;37.99
54459;BME280;40368;49.350;8.152;2022-12-18T02:24:17;1014.9;;;6.07;38.18
54459;BME280;40368;49.350;8.152;2022-12-18T02:24:54;1014.8;;;6.07;38.05
54459;BME280;40368;49.350;8.152;2022-12-18T02:26:07;1014.8;;;6.08;38.2
54459;BME280;40368;49.350;8.152;2022-12-18T02:26:43;1014.9;;;6.06;38.2
54459;BME280;40368;49.350;8.152;2022-12-18T02:27:56;1014.8;;;6.12;38.16
54459;BME280;40368;49.350;8.152;2022-12-18T02:29:11;1014.8;;;6.14;37.84
54459;BME280;40368;49.350;8.152;2022-12-18T02:29:48;1014.8;;;6.13;37.89
54459;BME280;40368;49.350;8.152;2022-12-18T02:31:01;1014.8;;;6.14;37.84
54459;BME280;40368;49.350;8.152;2022-12-18T02:32:16;1014.8;;;6.1;37.59
54459;BME280;40368;49.350;8.152;2022-12-18T02:32:52;1014.8;;;6.11;37.71
54459;BME280;40368;49.350;8.152;2022-12-18T02:34:06;1014.8;;;6.01;37.7
54459;BME280;40368;49.350;8.152;2022-12-18T02:34:43;1014.8;;;6.05;37.41
54459;BME280;40368;49.350;8.152;2022-12-18T02:35:57;1014.8;;;6;37.82
54459;BME280;40368;49.350;8.152;2022-12-18T02:37:12;1014.8;;;5.93;37.71
54459;BME280;40368;49.350;8.152;2022-12-18T02:37:49;1014.8;;;5.99;37.94
54459;BME280;40368;49.350;8.152;2022-12-18T02:39:03;1014.8;;;5.86;38.06
54459;BME280;40368;49.350;8.152;2022-12-18T02:39:40;1014.7;;;5.9;37.85
54459;BME280;40368;49.350;8.152;2022-12-18T02:40:54;1014.9;;;5.84;38.16
54459;BME280;40368;49.350;8.152;2022-12-18T02:42:08;1014.9;;;5.77;38.32
54459;BME280;40368;49.350;8.152;2022-12-18T02:42:45;1014.9;;;5.81;38
54459;BME280;40368;49.350;8.152;2022-12-18T02:44:06;1014.9;;;5.69;38.37
54459;BME280;40368;49.350;8.152;2022-12-18T02:45:13;1014.9;;;5.63;38.59
54459;BME280;40368;49.350;8.152;2022-12-18T02:45:52;1014.9;;;5.64;38.2
54459;BME280;40368;49.350;8.152;2022-12-18T02:47:05;1014.9;;;5.62;38.71
54459;BME280;40368;49.350;8.152;2022-12-18T02:47:42;1014.9;;;5.61;38.84
54459;BME280;40368;49.350;8.152;2022-12-18T02:48:57;1014.9;;;5.64;38.94
54459;BME280;40368;49.350;8.152;2022-12-18T02:50:12;1014.9;;;5.6;38.95
54459;BME280;40368;49.350;8.152;2022-12-18T02:50:49;1014.9;;;5.61;38.62
54459;BME280;40368;49.350;8.152;2022-12-18T02:52:03;1014.8;;;5.59;38.93
54459;BME280;40368;49.350;8.152;2022-12-18T02:53:17;1014.8;;;5.54;38.51
54459;BME280;40368;49.350;8.152;2022-12-18T02:53:53;1014.8;;;5.58;38.67
54459;BME280;40368;49.350;8.152;2022-12-18T02:55:12;1014.8;;;5.61;38.71
54459;BME280;40368;49.350;8.152;2022-12-18T02:55:47;1014.8;;;5.55;38.95
54459;BME280;40368;49.350;8.152;2022-12-18T02:56:58;1014.7;;;5.67;38.64
54459;BME280;40368;49.350;8.152;2022-12-18T02:58:13;1014.6;;;5.76;38.53
54459;BME280;40368;49.350;8.152;2022-12-18T02:58:51;1014.7;;;5.72;38.61
54459;BME280;40368;49.350;8.152;2022-12-18T02:59:28;1014.6;;;5.8;38.6
54459;BME280;40368;49.350;8.152;2022-12-18T03:00:33;1014.6;;;5.77;38.36
54459;BME280;40368;49.350;8.152;2022-12-18T03:01:48;1014.6;;;5.82;38.48
54459;BME280;40368;49.350;8.152;2022-12-18T03:03:02;1014.6;;;5.84;38.27
54459;BME280;40368;49.350;8.152;2022-12-18T03:04:15;1014.6;;;5.88;38.39
54459;BME280;40368;49.350;8.152;2022-12-18T03:04:53;1014.6;;;5.86;38.46
54459;BME280;40368;49.350;8.152;2022-12-18T03:06:06;1014.6;;;5.94;38.33
54459;BME280;40368;49.350;8.152;2022-12-18T03:06:43;1014.6;;;5.9;38.36
54459;BME280;40368;49.350;8.152;2022-12-18T03:07:58;1014.6;;;5.95;38.36
54459;BME280;40368;49.350;8.152;2022-12-18T03:09:12;1014.6;;;5.97;38.28
54459;BME280;40368;49.350;8.152;2022-12-18T03:09:48;1014.6;;;5.97;38.05
54459;BME280;40368;49.350;8.152;2022-12-18T03:11:02;1014.6;;;5.96;38.12
54459;BME280;40368;49.350;8.152;2022-12-18T03:12:54;1014.6;;;5.96;38.29
54459;BME280;40368;49.350;8.152;2022-12-18T03:14:07;1014.7;;;5.91;38.38
54459;BME280;40368;49.350;8.152;2022-12-18T03:14:44;1014.7;;;5.93;38.63
54459;BME280;40368;49.350;8.152;2022-12-18T03:15:58;1014.7;;;5.92;38.24
54459;BME280;40368;49.350;8.152;2022-12-18T03:17:13;1014.6;;;5.93;38.42
54459;BME280;40368;49.350;8.152;2022-12-18T03:17:50;1014.6;;;5.91;38.45
54459;BME280;40368;49.350;8.152;2022-12-18T03:19:05;1014.7;;;5.93;38.61
54459;BME280;40368;49.350;8.152;2022-12-18T03:19:41;1014.6;;;5.95;38.13
54459;BME280;40368;49.350;8.152;2022-12-18T03:20:56;1014.7;;;5.95;38.49
54459;BME280;40368;49.350;8.152;2022-12-18T03:22:09;1014.8;;;6.01;38.43
54459;BME280;40368;49.350;8.152;2022-12-18T03:22:46;1014.7;;;5.98;38.24
54459;BME280;40368;49.350;8.152;2022-12-18T03:24:00;1014.7;;;6.04;38.22
54459;BME280;40368;49.350;8.152;2022-12-18T03:25:14;1014.7;;;6.07;38.01
54459;BME280;40368;49.350;8.152;2022-12-18T03:25:52;1014.7;;;6.07;38.22
54459;BME280;40368;49.350;8.152;2022-12-18T03:27:06;1014.7;;;6.07;38.1
54459;BME280;40368;49.350;8.152;2022-12-18T03:27:43;1014.7;;;6.08;38.02
54459;BME280;40368;49.350;8.152;2022-12-18T03:28:57;1014.7;;;6.07;37.77
54459;BME280;40368;49.350;8.152;2022-12-18T03:30:12;1014.7;;;6.03;38.17
54459;BME280;40368;49.350;8.152;2022-12-18T03:30:49;1014.7;;;6.04;37.92
54459;BME280;40368;49.350;8.152;2022-12-18T03:32:03;1014.7;;;6.03;38.26
54459;BME280;40368;49.350;8.152;2022-12-18T03:33:17;1014.5;;;6.04;38.35
54459;BME280;40368;49.350;8.152;2022-12-18T03:33:54;1014.6;;;6.03;37.83
54459;BME280;40368;49.350;8.152;2022-12-18T03:35:07;1014.6;;;6.05;38.34
54459;BME280;40368;49.350;8.152;2022-12-18T03:35:44;1014.6;;;6.05;38.12
54459;BME280;40368;49.350;8.152;2022-12-18T03:36:58;1014.6;;;6.06;37.98
54459;BME280;40368;49.350;8.152;2022-12-18T03:38:13;1014.7;;;6.04;38.07
54459;BME280;40368;49.350;8.152;2022-12-18T03:38:50;1014.6;;;6.05;37.9
54459;BME280;40368;49.350;8.152;2022-12-18T03:40:04;1014.7;;;6.03;38.02
54459;BME280;40368;49.350;8.152;2022-12-18T03:40:44;1014.7;;;6.04;38.19
54459;BME280;40368;49.350;8.152;2022-12-18T03:41:55;1014.6;;;6.03;38.19
54459;BME280;40368;49.350;8.152;2022-12-18T03:43:10;1014.7;;;6.08;38.08
54459;BME280;40368;49.350;8.152;2022-12-18T03:43:48;1014.7;;;6.06;38.09
54459;BME280;40368;49.350;8.152;2022-12-18T03:45:02;1014.6;;;6.09;38
54459;BME280;40368;49.350;8.152;2022-12-18T03:46:15;1014.7;;;6.07;37.65
54459;BME280;40368;49.350;8.152;2022-12-18T03:46:52;1014.6;;;6.1;37.53
54459;BME280;40368;49.350;8.152;2022-12-18T03:48:07;1014.7;;;6;37.93
54459;BME280;40368;49.350;8.152;2022-12-18T03:48:43;1014.7;;;6.02;37.76
54459;BME280;40368;49.350;8.152;2022-12-18T03:49:57;1014.7;;;6;37.96
54459;BME280;40368;49.350;8.152;2022-12-18T03:51:12;1014.6;;;6.03;37.88
54459;BME280;40368;49.350;8.152;2022-12-18T03:51:48;1014.7;;;6.03;38.1
54459;BME280;40368;49.350;8.152;2022-12-18T03:53:08;1014.6;;;6.03;38.01
54459;BME280;40368;49.350;8.152;2022-12-18T03:54:16;1014.6;;;6.05;37.71
54459;BME280;40368;49.350;8.152;2022-12-18T03:54:53;1014.6;;;6.04;37.83
54459;BME280;40368;49.350;8.152;2022-12-18T03:56:07;1014.6;;;6.11;37.62
54459;BME280;40368;49.350;8.152;2022-12-18T03:56:45;1014.6;;;6.09;38.15
54459;BME280;40368;49.350;8.152;2022-12-18T03:57:58;1014.6;;;6.09;37.4
54459;BME280;40368;49.350;8.152;2022-12-18T03:59:13;1014.7;;;6.06;37.77
54459;BME280;40368;49.350;8.152;2022-12-18T04:00:56;1014.7;;;6;37.79
54459;BME280;40368;49.350;8.152;2022-12-18T04:01:34;1014.7;;;6.06;37.54
54459;BME280;40368;49.350;8.152;2022-12-18T04:02:48;1014.7;;;5.94;37.51
54459;BME280;40368;49.350;8.152;2022-12-18T04:04:01;1014.7;;;5.92;38.03
54459;BME280;40368;49.350;8.152;2022-12-18T04:05:15;1014.7;;;5.96;37.96
54459;BME280;40368;49.350;8.152;2022-12-18T04:05:52;1014.7;;;5.93;38.1
54459;BME280;40368;49.350;8.152;2022-12-18T04:07:06;1014.6;;;6.01;37.97
54459;BME280;40368;49.350;8.152;2022-12-18T04:07:43;1014.7;;;5.98;37.94
54459;BME280;40368;49.350;8.152;2022-12-18T04:08:57;1014.6;;;6;37.65
54459;BME280;40368;49.350;8.152;2022-12-18T04:10:12;1014.6;;;6;37.9
54459;BME280;40368;49.350;8.152;2022-12-18T04:10:49;1014.6;;;6;37.88
54459;BME280;40368;49.350;8.152;2022-12-18T04:12:03;1014.6;;;6.02;38.15
54459;BME280;40368;49.350;8.152;2022-12-18T04:12:40;1014.6;;;6;38.03
54459;BME280;40368;49.350;8.152;2022-12-18T04:13:55;1014.6;;;6.03;37.42
54459;BME280;40368;49.350;8.152;2022-12-18T04:15:08;1014.6;;;5.97;37.92
54459;BME280;40368;49.350;8.152;2022-12-18T04:15:45;1014.6;;;5.98;37.49
54459;BME280;40368;49.350;8.152;2022-12-18T04:16:59;1014.6;;;5.97;37.79
54459;BME280;40368;49.350;8.152;2022-12-18T04:18:13;1014.6;;;5.89;37.65
54459;BME280;40368;49.350;8.152;2022-12-18T04:18:50;1014.7;;;5.95;37.31
54459;BME280;40368;49.350;8.152;2022-12-18T04:20:05;1014.7;;;5.87;37.86
54459;BME280;40368;49.350;8.152;2022-12-18T04:20:42;1014.6;;;5.88;37.72
54459;BME280;40368;49.350;8.152;2022-12-18T04:21:56;1014.7;;;5.86;37.86
54459;BME280;40368;49.350;8.152;2022-12-18T04:23:10;1014.6;;;5.88;37.87
54459;BME280;40368;49.350;8.152;2022-12-18T04:23:48;1014.6;;;5.87;38.14
54459;BME280;40368;49.350;8.152;2022-12-18T04:25:01;1014.7;;;5.9;37.81
54459;BME280;40368;49.350;8.152;2022-12-18T04:26:15;1014.7;;;5.91;37.52
54459;BME280;40368;49.350;8.152;2022-12-18T04:26:53;1014.7;;;5.92;37.94
54459;BME280;40368;49.350;8.152;2022-12-18T04:28:06;1014.7;;;5.9;37.9
54459;BME280;40368;49.350;8.152;2022-12-18T04:28:43;1014.7;;;5.9;37.82
54459;BME280;40368;49.350;8.152;2022-12-18T04:29:58;1014.7;;;5.9;37.63
54459;BME280;40368;49.350;8.152;2022-12-18T04:31:12;1014.7;;;5.85;37.49
54459;BME280;40368;49.350;8.152;2022-12-18T04:31:49;1014.6;;;5.89;38.01
54459;BME280;40368;49.350;8.152;2022-12-18T04:33:03;1014.6;;;5.78;37.9
54459;BME280;40368;49.350;8.152;2022-12-18T04:33:40;1014.6;;;5.8;37.6
54459;BME280;40368;49.350;8.152;2022-12-18T04:34:54;1014.7;;;5.73;37.97
54459;BME280;40368;49.350;8.152;2022-12-18T04:36:08;1014.7;;;5.6;38.25
54459;BME280;40368;49.350;8.152;2022-12-18T04:36:45;1014.7;;;5.67;38.19
54459;BME280;40368;49.350;8.152;2022-12-18T04:37:59;1014.7;;;5.55;38.33
54459;BME280;40368;49.350;8.152;2022-12-18T04:39:14;1014.6;;;5.46;38.92
54459;BME280;40368;49.350;8.152;2022-12-18T04:39:51;1014.7;;;5.49;38.68
54459;BME280;40368;49.350;8.152;2022-12-18T04:41:05;1014.6;;;5.5;38.75
54459;BME280;40368;49.350;8.152;2022-12-18T04:41:42;1014.6;;;5.46;38.84
54459;BME280;40368;49.350;8.152;2022-12-18T04:42:56;1014.7;;;5.52;39.05
54459;BME280;40368;49.350;8.152;2022-12-18T04:44:10;1014.7;;;5.56;38.9
54459;BME280;40368;49.350;8.152;2022-12-18T04:44:47;1014.7;;;5.55;38.72
54459;BME280;40368;49.350;8.152;2022-12-18T04:46:02;1014.6;;;5.58;38.58
54459;BME280;40368;49.350;8.152;2022-12-18T04:47:15;1014.7;;;5.59;38.75
54459;BME280;40368;49.350;8.152;2022-12-18T04:47:52;1014.7;;;5.58;38.71
54459;BME280;40368;49.350;8.152;2022-12-18T04:49:06;1014.7;;;5.64;38.65
54459;BME280;40368;49.350;8.152;2022-12-18T04:49:44;1014.6;;;5.61;38.6
54459;BME280;40368;49.350;8.152;2022-12-18T04:50:58;1014.7;;;5.67;38.57
54459;BME280;40368;49.350;8.152;2022-12-18T04:52:12;1014.7;;;5.7;38.58
54459;BME280;40368;49.350;8.152;2022-12-18T04:52:49;1014.7;;;5.69;38.6
54459;BME280;40368;49.350;8.152;2022-12-18T04:54:03;1014.6;;;5.76;38.35
54459;BME280;40368;49.350;8.152;2022-12-18T04:54:40;1014.7;;;5.73;38.53
54459;BME280;40368;49.350;8.152;2022-12-18T04:56:02;1014.6;;;5.76;38.55
54459;BME280;40368;49.350;8.152;2022-12-18T04:57:08;1014.6;;;5.76;38.54
54459;BME280;40368;49.350;8.152;2022-12-18T04:57:45;1014.6;;;5.77;38.45
54459;BME280;40368;49.350;8.152;2022-12-18T04:58:59;1014.6;;;5.76;38.17
54459;BME280;40368;49.350;8.152;2022-12-18T05:00:06;1014.6;;;5.8;38.41
54459;BME280;40368;49.350;8.152;2022-12-18T05:00:42;1014.6;;;5.79;38.49
54459;BME280;40368;49.350;8.152;2022-12-18T05:01:57;1014.6;;;5.8;38.24
54459;BME280;40368;49.350;8.152;2022-12-18T05:03:12;1014.6;;;5.86;38.39
54459;BME280;40368;49.350;8.152;2022-12-18T05:03:48;1014.6;;;5.84;38.31
54459;BME280;40368;49.350;8.152;2022-12-18T05:05:02;1014.7;;;5.89;38.09
54459;BME280;40368;49.350;8.152;2022-12-18T05:05:39;1014.6;;;5.88;38.33
54459;BME280;40368;49.350;8.152;2022-12-18T05:06:53;1014.6;;;5.92;38.01
54459;BME280;40368;49.350;8.152;2022-12-18T05:08:07;1014.7;;;5.89;37.58
54459;BME280;40368;49.350;8.152;2022-12-18T05:08:44;1014.7;;;5.91;37.79
54459;BME280;40368;49.350;8.152;2022-12-18T05:09:59;1014.6;;;5.89;38.05
54459;BME280;40368;49.350;8.152;2022-12-18T05:11:13;1014.7;;;5.9;37.69
54459;BME280;40368;49.350;8.152;2022-12-18T05:11:49;1014.7;;;5.89;38.1
54459;BME280;40368;49.350;8.152;2022-12-18T05:13:04;1014.7;;;5.88;38.14
54459;BME280;40368;49.350;8.152;2022-12-18T05:13:41;1014.7;;;5.86;37.93
54459;BME280;40368;49.350;8.152;2022-12-18T05:14:55;1014.6;;;5.89;37.49
54459;BME280;40368;49.350;8.152;2022-12-18T05:16:09;1014.7;;;5.84;37.96
54459;BME280;40368;49.350;8.152;2022-12-18T05:16:46;1014.7;;;5.87;37.73
54459;BME280;40368;49.350;8.152;2022-12-18T05:18:00;1014.7;;;5.82;38.21
54459;BME280;40368;49.350;8.152;2022-12-18T05:19:14;1014.7;;;5.75;38.5
54459;BME280;40368;49.350;8.152;2022-12-18T05:19:51;1014.7;;;5.75;38.24
54459;BME280;40368;49.350;8.152;2022-12-18T05:21:05;1014.6;;;5.79;38.32
54459;BME280;40368;49.350;8.152;2022-12-18T05:21:43;1014.7;;;5.79;38.37
54459;BME280;40368;49.350;8.152;2022-12-18T05:22:57;1014.6;;;5.81;38.44
54459;BME280;40368;49.350;8.152;2022-12-18T05:24:11;1014.7;;;5.87;38.05
54459;BME280;40368;49.350;8.152;2022-12-18T05:24:48;1014.6;;;5.84;38.52
54459;BME280;40368;49.350;8.152;2022-12-18T05:26:03;1014.6;;;5.77;37.75
54459;BME280;40368;49.350;8.152;2022-12-18T05:27:16;1014.7;;;5.75;38.49
54459;BME280;40368;49.350;8.152;2022-12-18T05:27:53;1014.7;;;5.72;38.51
54459;BME280;40368;49.350;8.152;2022-12-18T05:29:07;1014.7;;;5.77;38.44
54459;BME280;40368;49.350;8.152;2022-12-18T05:29:44;1014.7;;;5.76;38.59
54459;BME280;40368;49.350;8.152;2022-12-18T05:30:59;1014.7;;;5.79;37.96
54459;BME280;40368;49.350;8.152;2022-12-18T05:32:13;1014.7;;;5.8;38.43
54459;BME280;40368;49.350;8.152;2022-12-18T05:32:50;1014.7;;;5.78;38.24
54459;BME280;40368;49.350;8.152;2022-12-18T05:34:04;1014.7;;;5.85;38.27
54459;BME280;40368;49.350;8.152;2022-12-18T05:34:41;1014.7;;;5.84;38.15
54459;BME280;40368;49.350;8.152;2022-12-18T05:35:56;1014.7;;;5.88;38.16
54459;BME280;40368;49.350;8.152;2022-12-18T05:37:09;1014.6;;;5.9;37.95
54459;BME280;40368;49.350;8.152;2022-12-18T05:37:46;1014.6;;;5.9;37.97
54459;BME280;40368;49.350;8.152;2022-12-18T05:39:00;1014.6;;;5.91;38.09
54459;BME280;40368;49.350;8.152;2022-12-18T05:40:14;1014.6;;;5.92;38.04
54459;BME280;40368;49.350;8.152;2022-12-18T05:40:52;1014.6;;;5.9;38.1
54459;BME280;40368;49.350;8.152;2022-12-18T05:42:06;1014.6;;;5.91;37.89
54459;BME280;40368;49.350;8.152;2022-12-18T05:42:43;1014.6;;;5.91;38.06
54459;BME280;40368;49.350;8.152;2022-12-18T05:43:57;1014.6;;;5.9;37.82
54459;BME280;40368;49.350;8.152;2022-12-18T05:45:11;1014.6;;;5.84;37.97
54459;BME280;40368;49.350;8.152;2022-12-18T05:45:48;1014.6;;;5.86;37.76
54459;BME280;40368;49.350;8.152;2022-12-18T05:47:02;1014.6;;;5.84;37.79
54459;BME280;40368;49.350;8.152;2022-12-18T05:48:16;1014.7;;;5.86;38.13
54459;BME280;40368;49.350;8.152;2022-12-18T05:48:53;1014.6;;;5.84;38.16
54459;BME280;40368;49.350;8.152;2022-12-18T05:50:07;1014.7;;;5.89;38.28